Time;durP1;ratioP1;P1;durP2;ratioP2;P2;SDS_P1;SDS_P2;PMS_P1;PMS_P2;Temp;Humidity;BMP_temperature;BMP_pressure;BME280_temperature;BME280_humidity;BME280_pressure;Samples;Min_cycle;Max_cycle;Signal;HPM_P1;HPM_P2
2021/09/22 00:00:14;;;;;;;12.18;9.45;;;14.50;99.90;;;;;;5007533;28;20048;-50
2021/09/22 00:02:40;;;;;;;11.85;8.88;;;14.50;99.90;;;;;;4963958;28;20082;-49
2021/09/22 00:05:07;;;;;;;9.18;8.07;;;14.50;99.90;;;;;;4999465;28;20466;-50
2021/09/22 00:07:33;;;;;;;10.50;8.00;;;14.60;99.90;;;;;;5006715;28;20038;-50
2021/09/22 00:09:59;;;;;;;12.00;7.70;;;14.60;99.90;;;;;;5021159;28;20083;-50
2021/09/22 00:12:25;;;;;;;10.48;8.48;;;14.60;99.90;;;;;;5021218;28;20026;-50
2021/09/22 00:14:51;;;;;;;11.90;8.80;;;14.60;99.90;;;;;;5015517;28;20042;-49
2021/09/22 00:17:17;;;;;;;11.10;7.65;;;14.70;99.90;;;;;;5013429;28;20039;-49
2021/09/22 00:19:43;;;;;;;9.35;7.63;;;14.60;99.90;;;;;;5022927;28;20022;-50
2021/09/22 00:22:09;;;;;;;9.95;8.27;;;14.60;99.90;;;;;;4999903;28;20041;-50
2021/09/22 00:24:35;;;;;;;10.30;7.72;;;14.60;99.90;;;;;;5021145;28;20079;-50
2021/09/22 00:27:03;;;;;;;9.68;7.75;;;14.60;99.90;;;;;;4969048;28;20440;-50
2021/09/22 00:29:29;;;;;;;11.35;7.68;;;14.60;99.90;;;;;;5014725;28;20034;-50
2021/09/22 00:31:54;;;;;;;10.07;7.38;;;14.70;99.90;;;;;;4984091;28;20144;-50
2021/09/22 00:34:20;;;;;;;11.18;7.82;;;14.70;99.90;;;;;;5011626;28;20120;-50
2021/09/22 00:36:47;;;;;;;8.80;7.18;;;14.70;99.90;;;;;;5023040;28;20033;-50
2021/09/22 00:39:13;;;;;;;7.68;6.78;;;14.70;99.90;;;;;;5017852;28;20528;-50
2021/09/22 00:41:39;;;;;;;8.82;7.60;;;14.70;99.90;;;;;;5015206;28;20031;-50
2021/09/22 00:44:05;;;;;;;8.65;7.78;;;14.70;99.90;;;;;;5012221;28;20515;-50
2021/09/22 00:46:30;;;;;;;10.52;7.72;;;14.70;99.90;;;;;;4994784;28;20161;-50
2021/09/22 00:48:56;;;;;;;8.82;7.13;;;14.70;99.90;;;;;;4993812;28;20087;-50
2021/09/22 00:51:22;;;;;;;8.88;7.30;;;14.60;99.90;;;;;;5012744;28;20061;-50
2021/09/22 00:53:48;;;;;;;11.10;7.72;;;14.50;99.90;;;;;;5021923;28;20038;-50
2021/09/22 00:56:15;;;;;;;9.65;7.53;;;14.50;99.90;;;;;;5014509;28;20036;-51
2021/09/22 00:58:40;;;;;;;12.73;7.75;;;14.50;99.90;;;;;;4938420;28;20536;-50
2021/09/22 01:01:06;;;;;;;10.32;7.90;;;14.50;99.90;;;;;;4961182;28;20034;-50
2021/09/22 01:03:32;;;;;;;8.30;7.38;;;14.50;99.90;;;;;;4947227;28;20440;-50
2021/09/22 01:06:00;;;;;;;10.52;7.63;;;14.40;99.90;;;;;;4948379;28;20511;-50
2021/09/22 01:08:30;;;;;;;11.35;7.80;;;14.40;99.90;;;;;;4976615;28;20526;-50
2021/09/22 01:10:56;;;;;;;9.27;8.07;;;14.50;99.90;;;;;;4966870;28;20042;-50
2021/09/22 01:13:22;;;;;;;7.65;6.85;;;14.50;99.90;;;;;;4981850;28;20038;-48
2021/09/22 01:15:48;;;;;;;8.77;7.43;;;14.40;99.90;;;;;;4970139;28;20109;-47
2021/09/22 01:18:16;;;;;;;11.30;8.00;;;14.40;99.90;;;;;;4968511;28;20039;-49
2021/09/22 01:20:48;;;;;;;9.45;7.93;;;14.30;99.90;;;;;;4948211;28;20503;-48
2021/09/22 01:23:15;;;;;;;13.10;8.80;;;14.30;99.90;;;;;;4966202;28;20024;-47
2021/09/22 01:25:44;;;;;;;10.13;7.57;;;14.30;99.90;;;;;;4967866;28;20111;-48
2021/09/22 01:28:12;;;;;;;9.30;7.70;;;14.20;99.90;;;;;;4970109;28;20039;-48
2021/09/22 01:30:38;;;;;;;9.60;7.93;;;14.20;99.90;;;;;;5003603;28;20030;-48
2021/09/22 01:33:07;;;;;;;8.80;7.35;;;14.20;99.90;;;;;;5009812;28;20036;-48
2021/09/22 01:35:36;;;;;;;11.02;6.93;;;14.20;99.90;;;;;;5019009;28;20570;-47
2021/09/22 01:38:04;;;;;;;9.10;8.13;;;14.20;99.90;;;;;;5017296;28;20035;-47
2021/09/22 01:40:30;;;;;;;9.52;8.25;;;14.20;99.90;;;;;;5004946;28;20474;-48
2021/09/22 01:42:56;;;;;;;9.10;8.07;;;14.20;99.90;;;;;;5022923;28;20731;-49
2021/09/22 01:45:22;;;;;;;8.05;7.25;;;14.00;99.90;;;;;;5014393;28;20057;-47
2021/09/22 01:47:48;;;;;;;11.63;7.82;;;14.20;99.90;;;;;;5014277;28;20034;-48
2021/09/22 01:50:17;;;;;;;11.10;8.00;;;14.20;99.90;;;;;;4953404;28;20042;-48
2021/09/22 01:52:44;;;;;;;8.55;7.03;;;14.20;99.90;;;;;;4957486;28;20553;-48
2021/09/22 01:55:11;;;;;;;10.48;7.25;;;14.10;99.90;;;;;;4973936;28;20035;-47
2021/09/22 01:57:37;;;;;;;9.13;7.38;;;14.10;99.90;;;;;;4969709;28;20027;-47
2021/09/22 02:00:05;;;;;;;11.10;7.70;;;;;;;;;;4943456;28;20042;-49
2021/09/22 02:02:31;;;;;;;9.57;7.32;;;13.90;99.90;;;;;;4956478;28;20074;-48
2021/09/22 02:04:58;;;;;;;8.93;7.13;;;14.00;99.90;;;;;;4975034;28;20096;-48
2021/09/22 02:07:23;;;;;;;9.30;6.88;;;14.00;99.90;;;;;;4978634;28;20042;-49
2021/09/22 02:09:49;;;;;;;8.48;6.95;;;13.90;99.90;;;;;;4953606;28;20121;-46
2021/09/22 02:12:15;;;;;;;9.02;6.80;;;13.90;99.90;;;;;;4973683;28;20031;-47
2021/09/22 02:14:41;;;;;;;9.75;7.32;;;;;;;;;;4974633;28;20043;-48
2021/09/22 02:17:07;;;;;;;7.95;6.85;;;;;;;;;;4974459;28;20027;-49
2021/09/22 02:19:34;;;;;;;8.95;7.28;;;;;;;;;;4968195;28;20467;-47
2021/09/22 02:21:59;;;;;;;9.05;7.40;;;13.80;99.90;;;;;;4984514;28;20499;-49
2021/09/22 02:24:26;;;;;;;7.20;6.40;;;;;;;;;;4963464;28;20073;-49
2021/09/22 02:26:52;;;;;;;8.75;6.30;;;13.80;99.90;;;;;;4984971;28;20437;-49
2021/09/22 02:29:19;;;;;;;8.15;7.20;;;13.90;99.90;;;;;;5010529;28;20030;-48
2021/09/22 02:31:47;;;;;;;8.07;6.70;;;;;;;;;;5023758;28;20037;-47
2021/09/22 02:34:13;;;;;;;7.45;6.07;;;13.50;99.90;;;;;;4998425;28;20560;-48
2021/09/22 02:36:39;;;;;;;7.30;5.72;;;;;;;;;;4979894;28;20041;-47
2021/09/22 02:39:06;;;;;;;8.80;7.43;;;13.30;99.90;;;;;;5014575;28;20029;-48
2021/09/22 02:41:32;;;;;;;8.23;6.38;;;13.30;99.90;;;;;;4993456;28;20109;-49
2021/09/22 02:44:00;;;;;;;6.80;5.70;;;13.40;99.90;;;;;;5014783;28;20042;-48
2021/09/22 02:46:26;;;;;;;9.98;7.28;;;13.40;99.90;;;;;;5018440;28;20030;-48
2021/09/22 02:48:52;;;;;;;7.90;5.85;;;13.40;99.90;;;;;;5027258;28;20041;-47
2021/09/22 02:51:18;;;;;;;9.93;5.90;;;13.30;99.90;;;;;;4991786;28;20524;-48
2021/09/22 02:53:44;;;;;;;7.40;5.80;;;13.30;99.90;;;;;;4995595;28;20038;-47
2021/09/22 02:56:10;;;;;;;9.55;6.00;;;13.20;99.90;;;;;;4980022;28;20044;-48
2021/09/22 02:58:35;;;;;;;9.73;5.53;;;13.10;99.90;;;;;;5002734;28;20033;-49
2021/09/22 03:01:01;;;;;;;10.25;6.47;;;13.10;99.90;;;;;;5017454;28;20068;-49
2021/09/22 03:03:27;;;;;;;7.18;6.07;;;13.00;99.90;;;;;;5022509;28;20025;-48
2021/09/22 03:05:54;;;;;;;7.57;5.57;;;13.00;99.90;;;;;;5023600;28;20041;-47
2021/09/22 03:08:19;;;;;;;7.32;4.93;;;12.90;99.90;;;;;;5019388;28;20358;-48
2021/09/22 03:10:45;;;;;;;6.03;4.85;;;12.90;99.90;;;;;;5016326;28;20030;-48
2021/09/22 03:13:11;;;;;;;5.60;5.00;;;12.90;99.90;;;;;;5018451;28;20057;-48
2021/09/22 03:15:37;;;;;;;6.65;5.30;;;12.90;99.90;;;;;;5019840;28;20053;-48
2021/09/22 03:18:03;;;;;;;6.25;5.07;;;12.80;99.90;;;;;;4970060;28;20038;-48
2021/09/22 03:20:28;;;;;;;13.00;5.00;;;12.80;99.90;;;;;;5004364;28;20057;-47
2021/09/22 03:22:54;;;;;;;6.65;4.88;;;12.80;99.90;;;;;;4986088;28;20041;-51
2021/09/22 03:25:20;;;;;;;10.07;5.03;;;12.80;99.90;;;;;;5020514;28;20030;-48
2021/09/22 03:27:46;;;;;;;6.90;5.30;;;12.70;99.90;;;;;;5020716;28;20065;-47
2021/09/22 03:30:12;;;;;;;6.28;5.00;;;12.70;99.90;;;;;;5016897;28;20080;-48
2021/09/22 03:32:38;;;;;;;7.15;4.72;;;12.80;99.90;;;;;;5012877;28;20076;-49
2021/09/22 03:35:04;;;;;;;7.55;5.10;;;12.70;99.90;;;;;;5022963;28;20084;-48
2021/09/22 03:37:31;;;;;;;7.35;5.55;;;12.80;99.90;;;;;;5015050;28;20037;-48
2021/09/22 03:39:56;;;;;;;6.70;4.60;;;12.80;99.90;;;;;;4964223;28;20038;-48
2021/09/22 03:42:22;;;;;;;7.22;5.22;;;12.80;99.90;;;;;;5008828;28;20033;-49
2021/09/22 03:44:48;;;;;;;7.28;4.95;;;12.80;99.90;;;;;;5022259;28;20032;-47
2021/09/22 03:47:14;;;;;;;5.07;4.53;;;12.80;99.90;;;;;;5024620;28;20543;-47
2021/09/22 03:49:39;;;;;;;5.57;4.60;;;12.90;99.90;;;;;;4966950;28;20038;-48
2021/09/22 03:52:05;;;;;;;8.90;5.30;;;12.90;99.90;;;;;;5016682;28;20030;-48
2021/09/22 03:54:31;;;;;;;9.55;5.70;;;12.90;99.90;;;;;;5014487;28;20033;-47
2021/09/22 03:56:57;;;;;;;5.38;4.43;;;12.90;99.90;;;;;;5000640;28;20037;-47
2021/09/22 03:59:23;;;;;;;6.43;5.13;;;12.90;99.90;;;;;;5004137;28;20042;-48
2021/09/22 04:01:48;;;;;;;6.03;4.60;;;12.90;99.90;;;;;;5015136;28;20031;-48
2021/09/22 04:04:14;;;;;;;9.68;4.50;;;12.80;99.90;;;;;;4967912;28;20732;-47
2021/09/22 04:06:40;;;;;;;7.45;5.45;;;12.90;99.90;;;;;;4994108;28;20045;-50
2021/09/22 04:09:10;;;;;;;7.65;4.68;;;12.90;99.90;;;;;;5020361;28;20442;-48
2021/09/22 04:11:36;;;;;;;5.32;4.40;;;12.90;99.90;;;;;;5019274;28;20038;-49
2021/09/22 04:14:03;;;;;;;6.60;4.03;;;12.80;99.90;;;;;;4991666;28;20549;-48
2021/09/22 04:16:29;;;;;;;5.90;4.75;;;12.80;99.90;;;;;;5015601;28;20112;-48
2021/09/22 04:18:54;;;;;;;6.88;4.03;;;12.90;99.90;;;;;;5014569;28;20073;-49
2021/09/22 04:21:20;;;;;;;5.03;4.20;;;12.80;99.90;;;;;;4996394;28;20045;-48
2021/09/22 04:23:46;;;;;;;6.38;4.32;;;12.80;99.90;;;;;;5020544;28;20179;-48
2021/09/22 04:26:12;;;;;;;6.13;4.22;;;12.80;99.90;;;;;;4967758;28;20652;-47
2021/09/22 04:28:38;;;;;;;8.10;4.70;;;12.80;99.90;;;;;;5018795;28;20037;-48
2021/09/22 04:31:04;;;;;;;6.60;4.63;;;12.80;99.90;;;;;;5018291;28;20033;-49
2021/09/22 04:33:30;;;;;;;7.45;4.15;;;12.70;99.90;;;;;;5014066;28;20037;-48
2021/09/22 04:35:56;;;;;;;7.68;4.47;;;12.80;99.90;;;;;;5008516;28;20046;-49
2021/09/22 04:38:22;;;;;;;4.15;3.60;;;12.80;99.90;;;;;;5021514;28;20101;-48
2021/09/22 04:40:48;;;;;;;6.57;4.35;;;12.70;99.90;;;;;;5013732;28;20038;-48
2021/09/22 04:43:14;;;;;;;6.78;4.28;;;12.70;99.90;;;;;;4988832;28;20046;-49
2021/09/22 04:45:40;;;;;;;6.40;4.07;;;12.70;99.90;;;;;;5012689;28;20386;-48
2021/09/22 04:48:06;;;;;;;5.88;4.18;;;12.70;99.90;;;;;;5018394;28;20045;-48
2021/09/22 04:50:32;;;;;;;8.73;4.00;;;12.60;99.90;;;;;;5021576;28;20048;-47
2021/09/22 04:52:58;;;;;;;6.32;4.47;;;;;;;;;;5013050;28;20032;-48
2021/09/22 04:55:25;;;;;;;6.30;4.05;;;12.60;99.90;;;;;;4992129;28;20078;-48
2021/09/22 04:57:50;;;;;;;10.60;4.60;;;12.70;99.90;;;;;;5012485;28;20044;-49
2021/09/22 05:00:17;;;;;;;5.10;4.30;;;12.70;99.90;;;;;;5011059;28;20029;-48
2021/09/22 05:02:43;;;;;;;6.40;4.22;;;12.70;99.90;;;;;;4988750;28;20042;-50
2021/09/22 05:05:09;;;;;;;5.45;4.43;;;12.70;99.90;;;;;;4973868;28;20572;-49
2021/09/22 05:07:35;;;;;;;5.72;3.67;;;12.70;99.90;;;;;;4982634;28;20042;-47
2021/09/22 05:10:00;;;;;;;5.20;4.07;;;12.80;99.90;;;;;;4988714;28;20022;-49
2021/09/22 05:12:26;;;;;;;5.03;4.05;;;12.80;99.90;;;;;;4982712;28;20042;-48
2021/09/22 05:14:52;;;;;;;5.95;4.40;;;12.90;99.90;;;;;;4954641;28;20070;-48
2021/09/22 05:17:18;;;;;;;4.30;3.90;;;12.90;99.90;;;;;;4976239;28;20035;-48
2021/09/22 05:19:43;;;;;;;5.43;4.00;;;12.90;99.90;;;;;;4983623;28;20034;-49
2021/09/22 05:22:09;;;;;;;9.02;4.72;;;12.90;99.90;;;;;;4988156;28;20134;-49
2021/09/22 05:24:35;;;;;;;8.05;5.20;;;13.00;99.90;;;;;;4983613;28;20030;-49
2021/09/22 05:27:01;;;;;;;6.75;3.95;;;13.00;99.90;;;;;;4989993;28;20048;-47
2021/09/22 05:29:27;;;;;;;5.70;3.80;;;13.10;99.90;;;;;;4984311;28;20081;-46
2021/09/22 05:31:53;;;;;;;6.45;4.57;;;13.00;99.90;;;;;;4961251;28;20121;-46
2021/09/22 05:34:18;;;;;;;6.22;4.18;;;13.10;99.90;;;;;;5006879;28;20049;-46
2021/09/22 05:36:44;;;;;;;6.57;3.90;;;13.10;99.70;;;;;;5011017;28;20469;-45
2021/09/22 05:39:10;;;;;;;14.35;5.05;;;13.10;99.70;;;;;;4992397;28;20041;-46
2021/09/22 05:41:36;;;;;;;5.10;4.20;;;13.10;99.90;;;;;;5015888;28;20118;-47
2021/09/22 05:44:01;;;;;;;6.47;4.03;;;13.10;99.90;;;;;;5019669;28;20363;-47
2021/09/22 05:46:27;;;;;;;5.93;4.05;;;13.10;99.70;;;;;;5010511;28;20030;-46
2021/09/22 05:48:53;;;;;;;4.88;3.33;;;13.10;99.80;;;;;;5018267;28;20108;-46
2021/09/22 05:51:19;;;;;;;6.32;4.03;;;13.10;99.60;;;;;;5013996;28;20425;-46
2021/09/22 05:53:45;;;;;;;22.52;4.75;;;13.20;99.70;;;;;;5020740;28;20034;-45
2021/09/22 05:56:11;;;;;;;7.88;4.43;;;13.20;99.60;;;;;;5008023;28;20118;-48
2021/09/22 05:58:37;;;;;;;7.75;4.72;;;13.40;99.50;;;;;;5021311;28;20040;-47
2021/09/22 06:01:03;;;;;;;8.85;4.50;;;13.30;99.60;;;;;;4969987;28;20041;-46
2021/09/22 06:03:29;;;;;;;8.05;4.60;;;13.40;99.40;;;;;;4934169;28;20121;-45
2021/09/22 06:05:55;;;;;;;10.52;4.78;;;13.50;99.30;;;;;;5016546;28;20044;-47
2021/09/22 06:08:20;;;;;;;12.32;6.50;;;13.50;99.20;;;;;;5008937;28;20061;-48
2021/09/22 06:10:47;;;;;;;10.43;5.72;;;13.50;99.50;;;;;;5012749;28;20113;-47
2021/09/22 06:13:13;;;;;;;12.55;5.97;;;13.60;99.40;;;;;;5015512;28;20025;-47
2021/09/22 06:15:39;;;;;;;7.13;4.50;;;13.50;99.20;;;;;;5013441;28;20470;-47
2021/09/22 06:18:05;;;;;;;6.00;4.70;;;13.50;99.40;;;;;;5013876;28;20483;-46
2021/09/22 06:20:31;;;;;;;6.50;4.20;;;13.60;99.10;;;;;;5012748;28;20033;-48
2021/09/22 06:22:57;;;;;;;7.18;4.80;;;13.60;98.80;;;;;;5023572;28;20070;-48
2021/09/22 06:25:23;;;;;;;5.68;4.43;;;13.60;99.00;;;;;;5020359;28;20030;-46
2021/09/22 06:27:50;;;;;;;5.85;3.92;;;13.60;98.70;;;;;;5013568;28;20042;-46
2021/09/22 06:30:16;;;;;;;7.10;4.03;;;13.60;98.50;;;;;;5015689;28;20042;-46
2021/09/22 06:32:42;;;;;;;6.60;4.45;;;13.50;98.70;;;;;;5016628;28;20524;-47
2021/09/22 06:35:09;;;;;;;5.18;4.53;;;13.50;98.80;;;;;;5012932;28;20053;-46
2021/09/22 06:37:35;;;;;;;5.30;4.28;;;13.60;98.70;;;;;;4924594;28;20093;-47
2021/09/22 06:40:01;;;;;;;5.75;4.18;;;13.80;98.50;;;;;;4978682;28;20157;-48
2021/09/22 06:42:27;;;;;;;7.40;4.90;;;13.80;98.40;;;;;;4975011;28;20515;-47
2021/09/22 06:44:53;;;;;;;6.95;4.63;;;13.90;98.40;;;;;;4972945;28;20038;-48
2021/09/22 06:47:19;;;;;;;5.20;3.63;;;14.00;98.10;;;;;;4958344;28;20058;-47
2021/09/22 06:49:45;;;;;;;8.02;5.00;;;13.90;97.90;;;;;;4956396;28;20035;-48
2021/09/22 06:52:11;;;;;;;5.53;3.92;;;14.00;98.20;;;;;;4923788;28;20455;-47
2021/09/22 06:54:37;;;;;;;9.82;4.75;;;14.10;97.70;;;;;;4973379;28;20034;-47
2021/09/22 06:57:02;;;;;;;7.40;5.32;;;14.20;98.00;;;;;;4973659;28;20034;-47
2021/09/22 06:59:28;;;;;;;5.75;4.35;;;14.20;97.40;;;;;;4955475;28;20042;-47
2021/09/22 07:01:54;;;;;;;4.82;3.75;;;14.00;97.70;;;;;;4973428;28;20494;-47
2021/09/22 07:04:20;;;;;;;6.75;4.05;;;13.80;97.90;;;;;;4971750;28;20475;-47
2021/09/22 07:06:46;;;;;;;7.63;4.18;;;13.80;98.00;;;;;;4976502;28;20038;-46
2021/09/22 07:09:12;;;;;;;7.45;4.25;;;14.00;98.30;;;;;;4946512;28;20094;-47
2021/09/22 07:11:37;;;;;;;6.38;3.80;;;14.10;97.80;;;;;;4960825;28;20395;-47
2021/09/22 07:14:04;;;;;;;7.57;5.50;;;14.10;97.60;;;;;;4955857;28;20026;-48
2021/09/22 07:16:30;;;;;;;5.63;4.57;;;14.10;97.60;;;;;;5022033;28;20022;-48
2021/09/22 07:18:57;;;;;;;6.97;4.03;;;14.20;97.80;;;;;;4995977;28;20542;-46
2021/09/22 07:21:23;;;;;;;19.13;6.25;;;14.30;97.60;;;;;;5011651;28;20576;-48
2021/09/22 07:23:50;;;;;;;8.75;5.00;;;14.40;97.60;;;;;;5015028;28;20481;-49
2021/09/22 07:26:16;;;;;;;11.50;5.25;;;14.50;97.80;;;;;;4993173;28;20030;-47
2021/09/22 07:28:42;;;;;;;8.18;5.00;;;14.60;97.50;;;;;;5020258;28;20034;-50
2021/09/22 07:31:08;;;;;;;8.35;5.07;;;14.80;97.10;;;;;;4953660;28;20468;-50
2021/09/22 07:33:34;;;;;;;9.30;5.53;;;14.90;96.50;;;;;;5014940;28;20125;-51
2021/09/22 07:36:00;;;;;;;6.03;4.15;;;14.90;97.00;;;;;;5008456;28;20049;-50
2021/09/22 07:38:27;;;;;;;6.22;4.43;;;14.80;96.70;;;;;;5019153;28;20021;-47
2021/09/22 07:40:53;;;;;;;6.47;4.05;;;14.60;96.50;;;;;;5011141;28;20044;-49
2021/09/22 07:43:19;;;;;;;8.18;5.43;;;14.60;96.60;;;;;;5019876;28;20442;-52
2021/09/22 07:45:45;;;;;;;7.28;5.00;;;14.70;96.90;;;;;;5007768;28;20044;-53
2021/09/22 07:48:11;;;;;;;7.75;4.90;;;14.90;96.90;;;;;;4988183;28;20054;-45
2021/09/22 07:50:37;;;;;;;6.97;4.57;;;14.80;96.50;;;;;;4981874;28;20054;-52
2021/09/22 07:53:04;;;;;;;6.10;4.82;;;15.00;96.90;;;;;;4981301;28;20044;-49
2021/09/22 07:55:30;;;;;;;8.35;4.00;;;15.00;96.50;;;;;;4934401;28;20081;-47
2021/09/22 07:57:55;;;;;;;6.50;3.47;;;14.80;96.60;;;;;;4978601;28;20046;-48
2021/09/22 08:00:23;;;;;;;7.05;4.32;;;14.80;96.50;;;;;;4964067;28;20306;-48
2021/09/22 08:02:58;;;;;;;7.50;3.92;;;14.90;96.40;;;;;;4979231;28;20042;-47
2021/09/22 08:05:24;;;;;;;8.10;4.57;;;14.90;96.30;;;;;;4978715;28;20032;-49
2021/09/22 08:07:50;;;;;;;7.35;4.45;;;15.00;96.20;;;;;;4991315;28;20822;-47
2021/09/22 08:10:16;;;;;;;9.48;5.78;;;15.10;96.20;;;;;;4983109;28;20057;-48
2021/09/22 08:12:43;;;;;;;9.18;4.32;;;15.20;96.10;;;;;;4954742;28;20093;-50
2021/09/22 08:15:09;;;;;;;5.75;4.40;;;15.20;95.90;;;;;;4979858;28;20107;-50
2021/09/22 08:17:35;;;;;;;5.28;4.18;;;15.20;95.90;;;;;;4964581;28;20063;-50
2021/09/22 08:20:01;;;;;;;6.97;3.88;;;15.20;95.70;;;;;;4970013;28;20096;-48
2021/09/22 08:22:27;;;;;;;10.95;5.07;;;15.10;96.00;;;;;;4980734;28;20035;-48
2021/09/22 08:24:53;;;;;;;8.43;4.82;;;15.30;95.70;;;;;;5021377;28;20041;-47
2021/09/22 08:27:19;;;;;;;6.10;5.30;;;15.20;95.90;;;;;;4989118;28;20438;-47
2021/09/22 08:29:44;;;;;;;9.18;4.57;;;15.30;95.50;;;;;;5026448;28;20080;-48
2021/09/22 08:32:10;;;;;;;8.35;5.65;;;15.40;95.70;;;;;;5018137;28;20034;-49
2021/09/22 08:34:36;;;;;;;8.70;4.82;;;15.50;95.50;;;;;;5001202;28;20048;-49
2021/09/22 08:37:02;;;;;;;9.25;4.93;;;15.60;95.60;;;;;;5010154;28;20051;-48
2021/09/22 08:39:32;;;;;;;12.45;7.85;;;15.40;95.20;;;;;;4976458;28;20198;-46
2021/09/22 08:41:58;;;;;;;8.13;5.00;;;15.50;95.60;;;;;;4964848;28;20444;-48
2021/09/22 08:44:25;;;;;;;8.00;4.80;;;15.40;95.70;;;;;;4998568;28;20065;-50
2021/09/22 08:46:51;;;;;;;8.43;5.28;;;15.60;95.80;;;;;;5016447;28;20060;-49
2021/09/22 08:49:16;;;;;;;12.38;5.10;;;15.60;95.70;;;;;;4996914;28;20073;-49
2021/09/22 08:51:44;;;;;;;7.88;4.35;;;15.60;95.30;;;;;;5011770;28;20065;-48
2021/09/22 08:54:10;;;;;;;7.28;4.53;;;15.70;95.40;;;;;;5016788;28;20038;-49
2021/09/22 08:56:38;;;;;;;4.20;3.50;;;15.80;95.20;;;;;;5009150;28;20022;-50
2021/09/22 08:59:05;;;;;;;6.72;4.80;;;15.60;95.10;;;;;;5016572;28;20065;-46
2021/09/22 09:01:31;;;;;;;5.63;4.18;;;15.60;95.30;;;;;;5016280;28;20029;-48
2021/09/22 09:03:57;;;;;;;6.43;3.95;;;15.40;95.40;;;;;;5018517;28;21073;-49
2021/09/22 09:06:34;;;;;;;4.28;3.38;;;15.60;95.50;;;;;;4957667;28;20170;-49
2021/09/22 09:09:02;;;;;;;11.75;4.60;;;15.50;95.70;;;;;;5016706;28;20038;-48
2021/09/22 09:11:46;;;;;;;5.95;3.95;;;15.60;95.50;;;;;;5018024;28;20439;-47
2021/09/22 09:14:14;;;;;;;6.22;3.70;;;15.60;95.30;;;;;;5015069;28;20074;-50
2021/09/22 09:16:48;;;;;;;8.70;4.75;;;15.50;95.40;;;;;;5017708;28;20040;-47
2021/09/22 09:19:22;;;;;;;7.63;5.03;;;15.60;95.40;;;;;;5010331;28;20362;-49
2021/09/22 09:22:02;;;;;;;9.00;5.60;;;15.50;95.70;;;;;;5019892;28;20034;-50
2021/09/22 09:24:46;;;;;;;6.55;4.68;;;15.50;95.60;;;;;;5015149;28;20097;-49
2021/09/22 09:27:36;;;;;;;15.68;7.70;;;15.40;95.70;;;;;;5011187;28;20141;-47
2021/09/22 09:30:18;;;;;;;13.30;6.82;;;15.30;96.30;;;;;;5009967;28;20040;-49
2021/09/22 09:32:44;;;;;;;12.23;7.45;;;15.30;96.40;;;;;;4961705;28;20038;-47
2021/09/22 09:35:22;;;;;;;16.73;9.23;;;15.20;97.40;;;;;;5017233;28;20046;-48
2021/09/22 09:37:50;;;;;;;12.73;7.15;;;15.30;97.50;;;;;;5013577;28;20018;-46
2021/09/22 09:40:30;;;;;;;12.15;6.95;;;15.30;97.60;;;;;;4970854;28;20046;-49
2021/09/22 09:43:01;;;;;;;12.90;6.70;;;15.20;98.40;;;;;;4978918;28;20033;-50
2021/09/22 09:45:33;;;;;;;8.50;5.73;;;15.10;98.50;;;;;;4959236;28;20034;-47
2021/09/22 09:48:00;;;;;;;11.40;6.00;;;15.00;98.90;;;;;;4955174;28;20363;-49
2021/09/22 09:50:26;;;;;;;13.18;7.78;;;14.80;99.30;;;;;;4959668;28;20744;-47
2021/09/22 09:53:00;;;;;;;8.70;6.45;;;14.70;99.90;;;;;;4978431;28;20031;-48
2021/09/22 09:55:26;;;;;;;10.13;7.35;;;14.80;99.90;;;;;;4972633;28;20041;-46
2021/09/22 09:57:54;;;;;;;9.02;6.13;;;14.80;99.90;;;;;;4969574;28;20074;-51
2021/09/22 10:00:43;;;;;;;10.77;7.93;;;14.80;99.90;;;;;;4953030;28;20121;-50
2021/09/22 10:03:16;;;;;;;12.43;6.80;;;14.90;99.90;;;;;;4978028;28;20055;-48
2021/09/22 10:05:42;;;;;;;9.98;6.85;;;15.00;99.90;;;;;;4971391;28;20114;-48
2021/09/22 10:08:11;;;;;;;7.38;5.20;;;15.00;99.90;;;;;;4917579;28;20081;-46
2021/09/22 10:10:40;;;;;;;11.93;7.55;;;14.90;99.90;;;;;;4947880;28;20124;-46
2021/09/22 10:13:06;;;;;;;11.13;5.85;;;14.70;99.90;;;;;;4987153;28;20042;-48
2021/09/22 10:15:33;;;;;;;9.15;6.35;;;14.70;99.90;;;;;;4985207;28;20034;-49
2021/09/22 10:18:00;;;;;;;13.88;6.93;;;14.60;99.90;;;;;;4981802;28;20034;-48
2021/09/22 10:20:26;;;;;;;9.73;7.18;;;14.70;99.90;;;;;;4981220;28;20045;-46
2021/09/22 10:22:52;;;;;;;9.40;6.40;;;14.70;99.90;;;;;;4934998;28;20050;-46
2021/09/22 10:25:21;;;;;;;9.00;6.38;;;14.70;99.90;;;;;;4979638;28;20121;-48
2021/09/22 10:27:48;;;;;;;9.23;6.90;;;14.70;99.90;;;;;;4983992;28;20555;-49
2021/09/22 10:30:15;;;;;;;11.98;7.30;;;14.60;99.90;;;;;;4985010;28;20526;-47
2021/09/22 10:32:47;;;;;;;11.82;7.50;;;14.70;99.90;;;;;;4987727;28;20023;-50
2021/09/22 10:35:25;;;;;;;11.50;7.20;;;14.70;99.90;;;;;;4983229;28;20476;-50
2021/09/22 10:38:02;;;;;;;12.30;8.05;;;14.80;99.90;;;;;;4991191;28;20034;-47
2021/09/22 10:40:34;;;;;;;9.50;6.53;;;14.80;99.90;;;;;;4987374;28;20050;-47
2021/09/22 10:43:14;;;;;;;8.25;6.47;;;14.70;99.90;;;;;;5005829;28;20430;-48
2021/09/22 10:45:44;;;;;;;10.45;7.38;;;14.70;99.90;;;;;;5011243;28;20021;-49
2021/09/22 10:48:23;;;;;;;10.07;7.00;;;14.70;99.90;;;;;;5004372;28;20069;-48
2021/09/22 10:50:52;;;;;;;10.95;7.38;;;14.70;99.90;;;;;;5004625;28;20030;-48
2021/09/22 10:53:36;;;;;;;10.18;7.35;;;14.60;99.90;;;;;;4963321;28;20035;-49
2021/09/22 10:56:26;;;;;;;8.45;7.00;;;14.60;99.90;;;;;;4964677;28;20035;-48
2021/09/22 10:58:56;;;;;;;10.27;7.35;;;14.50;99.90;;;;;;4973709;28;21182;-46
2021/09/22 11:01:40;;;;;;;9.43;7.60;;;14.50;99.90;;;;;;4967900;28;20046;-48
2021/09/22 11:04:11;;;;;;;11.20;7.78;;;14.60;99.90;;;;;;4969827;28;20030;-48
2021/09/22 11:06:46;;;;;;;11.13;9.20;;;14.50;99.90;;;;;;4974762;28;20035;-48
2021/09/22 11:09:13;;;;;;;14.57;10.50;;;14.50;99.90;;;;;;4972697;28;20058;-49
2021/09/22 11:11:53;;;;;;;20.83;14.88;;;14.40;99.90;;;;;;4956737;28;20078;-47
2021/09/22 11:14:30;;;;;;;14.90;10.60;;;14.50;99.90;;;;;;4963786;28;20031;-51
2021/09/22 11:16:59;;;;;;;12.65;10.65;;;14.50;99.90;;;;;;4948243;28;20038;-47
2021/09/22 11:19:25;;;;;;;15.68;11.63;;;14.50;99.90;;;;;;4966110;28;20042;-48
2021/09/22 11:21:51;;;;;;;10.98;8.80;;;14.50;99.90;;;;;;4959588;28;20092;-47
2021/09/22 11:24:21;;;;;;;13.43;10.20;;;14.50;99.90;;;;;;4980596;28;20034;-46
2021/09/22 11:27:03;;;;;;;11.98;9.38;;;14.50;99.90;;;;;;4972856;28;20054;-50
2021/09/22 11:29:40;;;;;;;14.75;11.15;;;14.40;99.90;;;;;;4929513;28;20456;-49
2021/09/22 11:32:29;;;;;;;14.80;11.95;;;14.40;99.90;;;;;;5014300;28;20381;-48
2021/09/22 11:35:00;;;;;;;15.45;10.98;;;14.40;99.90;;;;;;5014748;28;20052;-48
2021/09/22 11:37:37;;;;;;;14.95;12.13;;;14.40;99.90;;;;;;5017517;28;20041;-48
2021/09/22 11:40:31;;;;;;;13.35;11.38;;;14.50;99.90;;;;;;5006490;28;20038;-50
2021/09/22 11:43:13;;;;;;;17.05;12.52;;;14.30;99.90;;;;;;5022943;28;20037;-45
2021/09/22 11:45:43;;;;;;;18.40;11.15;;;14.40;99.90;;;;;;5006327;28;20037;-49
2021/09/22 11:48:11;;;;;;;11.85;8.88;;;14.40;99.90;;;;;;5009827;28;20069;-47
2021/09/22 11:50:38;;;;;;;16.23;11.60;;;14.20;99.90;;;;;;5014353;28;20034;-50
2021/09/22 11:53:09;;;;;;;15.20;11.25;;;14.30;99.90;;;;;;5023400;28;20028;-49
2021/09/22 11:55:37;;;;;;;13.57;10.93;;;14.40;99.90;;;;;;5018343;28;20018;-45
2021/09/22 11:58:10;;;;;;;17.48;10.98;;;14.50;99.90;;;;;;5010125;28;20026;-49
2021/09/22 12:00:38;;;;;;;12.25;10.48;;;14.50;99.90;;;;;;5020397;28;20040;-49
2021/09/22 12:03:08;;;;;;;14.32;10.85;;;14.40;99.90;;;;;;5003378;28;20025;-48
2021/09/22 12:05:35;;;;;;;13.60;9.90;;;14.60;99.90;;;;;;5002149;28;20390;-49
2021/09/22 12:08:01;;;;;;;12.85;9.02;;;14.60;99.90;;;;;;5010632;28;20519;-49
2021/09/22 12:10:27;;;;;;;13.80;10.77;;;14.50;99.90;;;;;;5002893;28;20466;-50
2021/09/22 12:13:04;;;;;;;12.48;9.57;;;14.50;99.90;;;;;;4960192;28;20045;-49
2021/09/22 12:15:32;;;;;;;12.18;9.93;;;14.50;99.90;;;;;;5005677;28;20567;-49
2021/09/22 12:17:57;;;;;;;11.02;8.80;;;14.60;99.90;;;;;;5004263;28;20056;-48
2021/09/22 12:20:24;;;;;;;11.80;9.30;;;14.40;99.90;;;;;;5008383;28;20042;-48
2021/09/22 12:22:57;;;;;;;13.70;10.05;;;14.30;99.90;;;;;;5008454;28;20092;-50
2021/09/22 12:25:23;;;;;;;12.45;9.30;;;14.30;99.90;;;;;;5003174;28;20056;-49
2021/09/22 12:27:51;;;;;;;11.63;9.30;;;14.10;99.90;;;;;;4992649;28;20050;-46
2021/09/22 12:30:17;;;;;;;12.18;10.07;;;14.00;99.90;;;;;;4995371;28;20375;-47
2021/09/22 12:32:51;;;;;;;12.88;9.93;;;14.20;99.90;;;;;;4999651;28;20490;-47
2021/09/22 12:35:18;;;;;;;15.05;11.45;;;14.20;99.90;;;;;;5006392;28;20093;-47
2021/09/22 12:38:00;;;;;;;16.35;10.52;;;14.30;99.90;;;;;;5020141;28;20367;-47
2021/09/22 12:40:33;;;;;;;14.60;9.83;;;14.30;99.90;;;;;;5014297;28;20563;-47
2021/09/22 12:43:02;;;;;;;12.43;9.82;;;14.40;99.90;;;;;;4998591;28;20037;-48
2021/09/22 12:45:32;;;;;;;12.02;9.38;;;14.60;99.90;;;;;;5022323;28;20021;-45
2021/09/22 12:48:04;;;;;;;9.18;7.93;;;14.80;99.90;;;;;;5016052;28;20120;-48